sensor_id;sensor_type;location;lat;lon;timestamp;P1;durP1;ratioP1;P2;durP2;ratioP2
68108;SDS011;54893;49.864;19.084;2024-01-16T00:02:15;15.17;;;7.10;;
68108;SDS011;54893;49.864;19.084;2024-01-16T00:07:15;14.77;;;6.03;;
68108;SDS011;54893;49.864;19.084;2024-01-16T00:12:16;13.63;;;6.80;;
68108;SDS011;54893;49.864;19.084;2024-01-16T00:17:16;15.93;;;6.77;;
68108;SDS011;54893;49.864;19.084;2024-01-16T00:22:16;17.13;;;7.70;;
68108;SDS011;54893;49.864;19.084;2024-01-16T00:27:17;16.20;;;8.20;;
68108;SDS011;54893;49.864;19.084;2024-01-16T00:32:17;15.27;;;6.40;;
68108;SDS011;54893;49.864;19.084;2024-01-16T00:37:17;15.40;;;7.50;;
68108;SDS011;54893;49.864;19.084;2024-01-16T00:42:18;15.07;;;7.07;;
68108;SDS011;54893;49.864;19.084;2024-01-16T00:47:18;16.17;;;7.37;;
68108;SDS011;54893;49.864;19.084;2024-01-16T00:52:19;16.42;;;6.55;;
68108;SDS011;54893;49.864;19.084;2024-01-16T00:57:19;15.07;;;8.10;;
68108;SDS011;54893;49.864;19.084;2024-01-16T01:02:20;14.57;;;6.43;;
68108;SDS011;54893;49.864;19.084;2024-01-16T01:07:20;14.40;;;5.73;;
68108;SDS011;54893;49.864;19.084;2024-01-16T01:12:20;14.80;;;7.70;;
68108;SDS011;54893;49.864;19.084;2024-01-16T01:17:21;17.77;;;7.37;;
68108;SDS011;54893;49.864;19.084;2024-01-16T01:22:21;18.63;;;6.87;;
68108;SDS011;54893;49.864;19.084;2024-01-16T01:27:21;16.23;;;6.43;;
68108;SDS011;54893;49.864;19.084;2024-01-16T01:32:22;16.33;;;9.70;;
68108;SDS011;54893;49.864;19.084;2024-01-16T01:37:22;15.10;;;7.17;;
68108;SDS011;54893;49.864;19.084;2024-01-16T01:42:23;16.33;;;6.27;;
68108;SDS011;54893;49.864;19.084;2024-01-16T01:47:23;11.95;;;5.57;;
68108;SDS011;54893;49.864;19.084;2024-01-16T01:52:24;13.10;;;7.10;;
68108;SDS011;54893;49.864;19.084;2024-01-16T01:57:25;14.73;;;6.17;;
68108;SDS011;54893;49.864;19.084;2024-01-16T02:02:25;14.07;;;6.63;;
68108;SDS011;54893;49.864;19.084;2024-01-16T02:07:26;11.35;;;4.95;;
68108;SDS011;54893;49.864;19.084;2024-01-16T02:12:27;15.18;;;6.90;;
68108;SDS011;54893;49.864;19.084;2024-01-16T02:17:28;14.55;;;7.55;;
68108;SDS011;54893;49.864;19.084;2024-01-16T02:22:28;13.50;;;6.47;;
68108;SDS011;54893;49.864;19.084;2024-01-16T02:27:32;10.85;;;4.65;;
68108;SDS011;54893;49.864;19.084;2024-01-16T02:32:32;14.47;;;7.87;;
68108;SDS011;54893;49.864;19.084;2024-01-16T02:37:32;15.03;;;6.63;;
68108;SDS011;54893;49.864;19.084;2024-01-16T02:42:33;13.23;;;5.80;;
68108;SDS011;54893;49.864;19.084;2024-01-16T02:47:33;12.30;;;5.27;;
68108;SDS011;54893;49.864;19.084;2024-01-16T02:52:34;9.80;;;4.57;;
68108;SDS011;54893;49.864;19.084;2024-01-16T02:57:34;12.40;;;6.67;;
68108;SDS011;54893;49.864;19.084;2024-01-16T03:02:35;10.97;;;5.80;;
68108;SDS011;54893;49.864;19.084;2024-01-16T03:07:35;11.07;;;5.37;;
68108;SDS011;54893;49.864;19.084;2024-01-16T03:12:35;15.50;;;4.50;;
68108;SDS011;54893;49.864;19.084;2024-01-16T03:17:36;9.13;;;4.70;;
68108;SDS011;54893;49.864;19.084;2024-01-16T03:22:36;9.97;;;5.00;;
68108;SDS011;54893;49.864;19.084;2024-01-16T03:27:36;8.63;;;4.03;;
68108;SDS011;54893;49.864;19.084;2024-01-16T03:32:37;9.73;;;4.03;;
68108;SDS011;54893;49.864;19.084;2024-01-16T03:37:37;10.27;;;4.93;;
68108;SDS011;54893;49.864;19.084;2024-01-16T03:42:39;10.93;;;5.80;;
68108;SDS011;54893;49.864;19.084;2024-01-16T03:47:39;9.93;;;5.00;;
68108;SDS011;54893;49.864;19.084;2024-01-16T03:52:39;10.87;;;6.30;;
68108;SDS011;54893;49.864;19.084;2024-01-16T03:57:40;10.50;;;6.30;;
68108;SDS011;54893;49.864;19.084;2024-01-16T04:02:40;10.63;;;5.57;;
68108;SDS011;54893;49.864;19.084;2024-01-16T04:07:40;10.80;;;4.43;;
68108;SDS011;54893;49.864;19.084;2024-01-16T04:12:41;10.27;;;4.70;;
68108;SDS011;54893;49.864;19.084;2024-01-16T04:17:41;10.87;;;4.73;;
68108;SDS011;54893;49.864;19.084;2024-01-16T04:22:41;9.43;;;5.13;;
68108;SDS011;54893;49.864;19.084;2024-01-16T04:27:42;10.47;;;5.07;;
68108;SDS011;54893;49.864;19.084;2024-01-16T04:32:42;12.40;;;6.33;;
68108;SDS011;54893;49.864;19.084;2024-01-16T04:37:43;10.90;;;5.93;;
68108;SDS011;54893;49.864;19.084;2024-01-16T04:42:43;11.63;;;5.97;;
68108;SDS011;54893;49.864;19.084;2024-01-16T04:47:43;9.57;;;4.03;;
68108;SDS011;54893;49.864;19.084;2024-01-16T04:52:44;9.30;;;4.67;;
68108;SDS011;54893;49.864;19.084;2024-01-16T04:57:44;9.52;;;4.10;;
68108;SDS011;54893;49.864;19.084;2024-01-16T05:02:45;10.70;;;5.37;;
68108;SDS011;54893;49.864;19.084;2024-01-16T05:07:46;10.27;;;3.40;;
68108;SDS011;54893;49.864;19.084;2024-01-16T05:12:46;10.50;;;4.50;;
68108;SDS011;54893;49.864;19.084;2024-01-16T05:17:47;12.02;;;4.63;;
68108;SDS011;54893;49.864;19.084;2024-01-16T05:22:47;9.93;;;5.70;;
68108;SDS011;54893;49.864;19.084;2024-01-16T05:27:48;10.13;;;5.30;;
68108;SDS011;54893;49.864;19.084;2024-01-16T05:32:49;12.73;;;5.35;;
68108;SDS011;54893;49.864;19.084;2024-01-16T05:37:49;14.43;;;5.80;;
68108;SDS011;54893;49.864;19.084;2024-01-16T05:42:50;17.23;;;7.77;;
68108;SDS011;54893;49.864;19.084;2024-01-16T05:47:50;14.87;;;6.87;;
68108;SDS011;54893;49.864;19.084;2024-01-16T05:52:50;18.47;;;8.57;;
68108;SDS011;54893;49.864;19.084;2024-01-16T05:57:51;22.10;;;10.47;;
68108;SDS011;54893;49.864;19.084;2024-01-16T06:02:52;26.10;;;8.10;;
68108;SDS011;54893;49.864;19.084;2024-01-16T06:07:52;18.80;;;8.10;;
68108;SDS011;54893;49.864;19.084;2024-01-16T06:12:52;19.77;;;7.87;;
68108;SDS011;54893;49.864;19.084;2024-01-16T06:17:53;18.73;;;8.07;;
68108;SDS011;54893;49.864;19.084;2024-01-16T06:22:53;17.80;;;6.83;;
68108;SDS011;54893;49.864;19.084;2024-01-16T06:27:53;23.47;;;8.03;;
68108;SDS011;54893;49.864;19.084;2024-01-16T06:32:54;26.17;;;11.40;;
68108;SDS011;54893;49.864;19.084;2024-01-16T06:37:54;22.63;;;8.43;;
68108;SDS011;54893;49.864;19.084;2024-01-16T06:42:55;20.13;;;8.77;;
68108;SDS011;54893;49.864;19.084;2024-01-16T06:47:55;12.77;;;4.33;;
68108;SDS011;54893;49.864;19.084;2024-01-16T06:52:55;12.20;;;4.70;;
68108;SDS011;54893;49.864;19.084;2024-01-16T06:57:56;14.13;;;4.80;;
68108;SDS011;54893;49.864;19.084;2024-01-16T07:02:56;12.90;;;5.87;;
68108;SDS011;54893;49.864;19.084;2024-01-16T07:07:56;11.33;;;4.57;;
68108;SDS011;54893;49.864;19.084;2024-01-16T07:12:58;13.60;;;5.05;;
68108;SDS011;54893;49.864;19.084;2024-01-16T07:17:58;12.90;;;4.67;;
68108;SDS011;54893;49.864;19.084;2024-01-16T07:22:59;10.03;;;4.40;;
68108;SDS011;54893;49.864;19.084;2024-01-16T07:27:59;9.93;;;4.67;;
68108;SDS011;54893;49.864;19.084;2024-01-16T07:33:00;10.50;;;4.87;;
68108;SDS011;54893;49.864;19.084;2024-01-16T07:38:00;11.53;;;3.70;;
68108;SDS011;54893;49.864;19.084;2024-01-16T07:43:01;10.87;;;4.50;;
68108;SDS011;54893;49.864;19.084;2024-01-16T07:48:01;9.03;;;3.73;;
68108;SDS011;54893;49.864;19.084;2024-01-16T07:53:02;9.20;;;4.10;;
68108;SDS011;54893;49.864;19.084;2024-01-16T07:58:02;14.53;;;4.30;;
68108;SDS011;54893;49.864;19.084;2024-01-16T08:03:06;9.88;;;4.40;;
68108;SDS011;54893;49.864;19.084;2024-01-16T08:08:08;11.65;;;4.20;;
68108;SDS011;54893;49.864;19.084;2024-01-16T08:13:11;12.93;;;4.27;;
68108;SDS011;54893;49.864;19.084;2024-01-16T08:18:12;10.07;;;5.00;;
68108;SDS011;54893;49.864;19.084;2024-01-16T08:23:13;11.27;;;5.18;;
68108;SDS011;54893;49.864;19.084;2024-01-16T08:28:13;11.53;;;4.90;;
68108;SDS011;54893;49.864;19.084;2024-01-16T08:33:14;10.10;;;3.83;;
68108;SDS011;54893;49.864;19.084;2024-01-16T08:38:15;13.60;;;5.37;;
68108;SDS011;54893;49.864;19.084;2024-01-16T08:43:15;11.43;;;5.30;;
68108;SDS011;54893;49.864;19.084;2024-01-16T08:48:15;11.27;;;5.93;;
68108;SDS011;54893;49.864;19.084;2024-01-16T08:53:16;13.37;;;4.87;;
68108;SDS011;54893;49.864;19.084;2024-01-16T08:58:17;12.17;;;5.80;;
68108;SDS011;54893;49.864;19.084;2024-01-16T09:03:17;12.70;;;5.50;;
68108;SDS011;54893;49.864;19.084;2024-01-16T09:08:18;11.82;;;6.07;;
68108;SDS011;54893;49.864;19.084;2024-01-16T09:13:18;12.10;;;5.53;;
68108;SDS011;54893;49.864;19.084;2024-01-16T09:18:20;12.83;;;4.90;;
68108;SDS011;54893;49.864;19.084;2024-01-16T09:23:20;10.67;;;5.10;;
68108;SDS011;54893;49.864;19.084;2024-01-16T09:28:21;10.83;;;3.73;;
68108;SDS011;54893;49.864;19.084;2024-01-16T09:33:22;11.17;;;4.53;;
68108;SDS011;54893;49.864;19.084;2024-01-16T09:38:23;10.73;;;5.28;;
68108;SDS011;54893;49.864;19.084;2024-01-16T09:43:25;8.73;;;4.27;;
68108;SDS011;54893;49.864;19.084;2024-01-16T09:48:30;10.48;;;4.80;;
68108;SDS011;54893;49.864;19.084;2024-01-16T09:53:31;10.93;;;4.40;;
68108;SDS011;54893;49.864;19.084;2024-01-16T09:58:33;10.77;;;4.83;;
68108;SDS011;54893;49.864;19.084;2024-01-16T10:03:36;12.45;;;5.32;;
68108;SDS011;54893;49.864;19.084;2024-01-16T10:08:37;10.23;;;4.10;;
68108;SDS011;54893;49.864;19.084;2024-01-16T10:13:39;16.90;;;4.30;;
68108;SDS011;54893;49.864;19.084;2024-01-16T10:18:41;12.93;;;4.45;;
68108;SDS011;54893;49.864;19.084;2024-01-16T10:23:43;10.43;;;3.73;;
68108;SDS011;54893;49.864;19.084;2024-01-16T10:28:44;9.27;;;3.87;;
68108;SDS011;54893;49.864;19.084;2024-01-16T10:33:44;8.93;;;3.87;;
68108;SDS011;54893;49.864;19.084;2024-01-16T10:38:45;10.30;;;3.70;;
68108;SDS011;54893;49.864;19.084;2024-01-16T10:43:45;8.68;;;4.40;;
68108;SDS011;54893;49.864;19.084;2024-01-16T10:49:06;9.20;;;3.57;;
68108;SDS011;54893;49.864;19.084;2024-01-16T10:54:06;9.27;;;3.53;;
68108;SDS011;54893;49.864;19.084;2024-01-16T10:59:18;8.90;;;3.92;;
68108;SDS011;54893;49.864;19.084;2024-01-16T11:04:24;9.57;;;3.80;;
68108;SDS011;54893;49.864;19.084;2024-01-16T11:09:25;8.90;;;4.53;;
68108;SDS011;54893;49.864;19.084;2024-01-16T11:14:25;11.23;;;4.10;;
68108;SDS011;54893;49.864;19.084;2024-01-16T11:19:28;11.15;;;4.50;;
68108;SDS011;54893;49.864;19.084;2024-01-16T11:24:29;10.23;;;4.75;;
68108;SDS011;54893;49.864;19.084;2024-01-16T11:39:41;12.25;;;4.07;;
68108;SDS011;54893;49.864;19.084;2024-01-16T11:44:49;10.47;;;4.53;;
68108;SDS011;54893;49.864;19.084;2024-01-16T11:50:12;12.35;;;5.32;;
68108;SDS011;54893;49.864;19.084;2024-01-16T11:55:33;11.18;;;4.63;;
68108;SDS011;54893;49.864;19.084;2024-01-16T12:00:38;11.00;;;5.33;;
68108;SDS011;54893;49.864;19.084;2024-01-16T12:05:41;12.02;;;4.68;;
68108;SDS011;54893;49.864;19.084;2024-01-16T12:10:46;11.25;;;4.47;;
68108;SDS011;54893;49.864;19.084;2024-01-16T12:15:58;9.73;;;4.35;;
68108;SDS011;54893;49.864;19.084;2024-01-16T12:21:12;9.50;;;4.82;;
68108;SDS011;54893;49.864;19.084;2024-01-16T12:26:21;9.63;;;4.87;;
68108;SDS011;54893;49.864;19.084;2024-01-16T12:31:22;7.22;;;3.08;;
68108;SDS011;54893;49.864;19.084;2024-01-16T12:36:24;19.63;;;6.07;;
68108;SDS011;54893;49.864;19.084;2024-01-16T12:41:25;6.65;;;2.63;;
68108;SDS011;54893;49.864;19.084;2024-01-16T12:46:30;17.43;;;7.50;;
68108;SDS011;54893;49.864;19.084;2024-01-16T12:51:32;15.75;;;6.55;;
68108;SDS011;54893;49.864;19.084;2024-01-16T12:56:32;13.07;;;5.47;;
68108;SDS011;54893;49.864;19.084;2024-01-16T13:01:33;13.53;;;4.80;;
68108;SDS011;54893;49.864;19.084;2024-01-16T13:06:33;13.80;;;5.60;;
68108;SDS011;54893;49.864;19.084;2024-01-16T13:11:44;19.57;;;5.90;;
68108;SDS011;54893;49.864;19.084;2024-01-16T13:16:48;13.68;;;6.10;;
68108;SDS011;54893;49.864;19.084;2024-01-16T13:21:50;21.17;;;7.37;;
68108;SDS011;54893;49.864;19.084;2024-01-16T13:26:50;18.47;;;7.10;;
68108;SDS011;54893;49.864;19.084;2024-01-16T13:31:51;16.67;;;7.45;;
68108;SDS011;54893;49.864;19.084;2024-01-16T13:36:55;19.97;;;7.67;;
68108;SDS011;54893;49.864;19.084;2024-01-16T13:41:59;13.40;;;5.63;;
68108;SDS011;54893;49.864;19.084;2024-01-16T13:47:00;16.13;;;6.33;;
68108;SDS011;54893;49.864;19.084;2024-01-16T13:52:00;16.13;;;6.93;;
68108;SDS011;54893;49.864;19.084;2024-01-16T13:57:00;21.80;;;8.33;;
68108;SDS011;54893;49.864;19.084;2024-01-16T14:02:04;20.60;;;7.23;;
68108;SDS011;54893;49.864;19.084;2024-01-16T14:07:08;18.87;;;8.20;;
68108;SDS011;54893;49.864;19.084;2024-01-16T14:12:08;29.00;;;11.50;;
68108;SDS011;54893;49.864;19.084;2024-01-16T14:17:09;20.80;;;8.37;;
68108;SDS011;54893;49.864;19.084;2024-01-16T14:22:09;28.08;;;12.15;;
68108;SDS011;54893;49.864;19.084;2024-01-16T14:27:11;19.80;;;8.40;;
68108;SDS011;54893;49.864;19.084;2024-01-16T14:32:11;19.37;;;6.43;;
68108;SDS011;54893;49.864;19.084;2024-01-16T14:37:12;11.50;;;5.03;;
68108;SDS011;54893;49.864;19.084;2024-01-16T14:42:13;11.07;;;4.72;;
68108;SDS011;54893;49.864;19.084;2024-01-16T14:47:14;10.87;;;5.03;;
68108;SDS011;54893;49.864;19.084;2024-01-16T14:52:14;12.93;;;3.87;;
68108;SDS011;54893;49.864;19.084;2024-01-16T14:57:14;12.93;;;4.47;;
68108;SDS011;54893;49.864;19.084;2024-01-16T15:02:15;15.63;;;4.87;;
68108;SDS011;54893;49.864;19.084;2024-01-16T15:07:16;16.45;;;6.53;;
68108;SDS011;54893;49.864;19.084;2024-01-16T15:12:16;19.60;;;6.20;;
68108;SDS011;54893;49.864;19.084;2024-01-16T15:17:18;13.70;;;5.72;;
68108;SDS011;54893;49.864;19.084;2024-01-16T15:22:19;13.07;;;4.67;;
68108;SDS011;54893;49.864;19.084;2024-01-16T15:27:19;15.70;;;4.20;;
68108;SDS011;54893;49.864;19.084;2024-01-16T15:32:20;10.38;;;4.32;;
68108;SDS011;54893;49.864;19.084;2024-01-16T15:37:20;24.77;;;10.00;;
68108;SDS011;54893;49.864;19.084;2024-01-16T15:42:21;25.20;;;11.33;;
68108;SDS011;54893;49.864;19.084;2024-01-16T15:47:22;22.17;;;9.57;;
68108;SDS011;54893;49.864;19.084;2024-01-16T15:52:22;15.13;;;5.43;;
68108;SDS011;54893;49.864;19.084;2024-01-16T15:57:23;13.63;;;5.33;;
68108;SDS011;54893;49.864;19.084;2024-01-16T16:02:23;13.57;;;6.50;;
68108;SDS011;54893;49.864;19.084;2024-01-16T16:07:23;23.50;;;10.03;;
68108;SDS011;54893;49.864;19.084;2024-01-16T16:12:24;22.37;;;7.80;;
68108;SDS011;54893;49.864;19.084;2024-01-16T16:17:24;29.03;;;10.17;;
68108;SDS011;54893;49.864;19.084;2024-01-16T16:22:24;27.90;;;11.00;;
68108;SDS011;54893;49.864;19.084;2024-01-16T16:27:25;26.17;;;9.17;;
68108;SDS011;54893;49.864;19.084;2024-01-16T16:32:26;23.17;;;8.95;;
68108;SDS011;54893;49.864;19.084;2024-01-16T16:37:27;24.60;;;8.10;;
68108;SDS011;54893;49.864;19.084;2024-01-16T16:42:27;24.10;;;8.10;;
68108;SDS011;54893;49.864;19.084;2024-01-16T16:47:27;27.17;;;9.50;;
68108;SDS011;54893;49.864;19.084;2024-01-16T16:52:28;36.50;;;12.30;;
68108;SDS011;54893;49.864;19.084;2024-01-16T16:57:28;33.03;;;11.27;;
68108;SDS011;54893;49.864;19.084;2024-01-16T17:02:28;37.90;;;11.47;;
68108;SDS011;54893;49.864;19.084;2024-01-16T17:07:29;40.97;;;12.23;;
68108;SDS011;54893;49.864;19.084;2024-01-16T17:12:30;35.75;;;11.15;;
68108;SDS011;54893;49.864;19.084;2024-01-16T17:17:32;34.07;;;11.23;;
68108;SDS011;54893;49.864;19.084;2024-01-16T17:22:34;36.95;;;11.25;;
68108;SDS011;54893;49.864;19.084;2024-01-16T17:27:35;35.93;;;11.87;;
68108;SDS011;54893;49.864;19.084;2024-01-16T17:32:35;42.97;;;13.53;;
68108;SDS011;54893;49.864;19.084;2024-01-16T17:37:36;42.70;;;13.10;;
68108;SDS011;54893;49.864;19.084;2024-01-16T17:42:37;42.50;;;14.90;;
68108;SDS011;54893;49.864;19.084;2024-01-16T17:47:38;48.78;;;17.55;;
68108;SDS011;54893;49.864;19.084;2024-01-16T17:52:38;52.22;;;18.40;;
68108;SDS011;54893;49.864;19.084;2024-01-16T17:57:38;62.57;;;20.00;;
68108;SDS011;54893;49.864;19.084;2024-01-16T18:02:42;45.57;;;17.17;;
68108;SDS011;54893;49.864;19.084;2024-01-16T18:07:42;58.43;;;16.87;;
68108;SDS011;54893;49.864;19.084;2024-01-16T18:12:43;60.07;;;19.77;;
68108;SDS011;54893;49.864;19.084;2024-01-16T18:17:46;81.57;;;27.57;;
68108;SDS011;54893;49.864;19.084;2024-01-16T18:22:48;112.32;;;36.40;;
68108;SDS011;54893;49.864;19.084;2024-01-16T18:27:50;101.63;;;35.60;;
68108;SDS011;54893;49.864;19.084;2024-01-16T18:32:56;103.80;;;36.72;;
68108;SDS011;54893;49.864;19.084;2024-01-16T18:37:57;83.77;;;27.77;;
68108;SDS011;54893;49.864;19.084;2024-01-16T18:42:57;67.63;;;23.80;;
68108;SDS011;54893;49.864;19.084;2024-01-16T18:47:57;65.90;;;23.30;;
68108;SDS011;54893;49.864;19.084;2024-01-16T18:52:58;59.97;;;19.40;;
68108;SDS011;54893;49.864;19.084;2024-01-16T18:57:58;106.60;;;31.10;;
68108;SDS011;54893;49.864;19.084;2024-01-16T19:03:01;61.83;;;19.70;;
68108;SDS011;54893;49.864;19.084;2024-01-16T19:08:02;50.30;;;17.67;;
68108;SDS011;54893;49.864;19.084;2024-01-16T19:13:04;52.30;;;17.67;;
68108;SDS011;54893;49.864;19.084;2024-01-16T19:18:04;77.97;;;24.77;;
68108;SDS011;54893;49.864;19.084;2024-01-16T19:23:05;100.50;;;33.87;;
68108;SDS011;54893;49.864;19.084;2024-01-16T19:28:05;95.50;;;33.80;;
68108;SDS011;54893;49.864;19.084;2024-01-16T19:33:06;81.78;;;27.42;;
68108;SDS011;54893;49.864;19.084;2024-01-16T19:38:08;78.27;;;26.60;;
68108;SDS011;54893;49.864;19.084;2024-01-16T19:43:08;76.23;;;25.83;;
68108;SDS011;54893;49.864;19.084;2024-01-16T19:48:09;74.60;;;25.23;;
68108;SDS011;54893;49.864;19.084;2024-01-16T19:53:12;67.38;;;23.27;;
68108;SDS011;54893;49.864;19.084;2024-01-16T19:58:14;70.90;;;21.87;;
68108;SDS011;54893;49.864;19.084;2024-01-16T20:03:15;60.92;;;20.38;;
68108;SDS011;54893;49.864;19.084;2024-01-16T20:08:15;57.87;;;19.37;;
68108;SDS011;54893;49.864;19.084;2024-01-16T20:13:15;63.67;;;21.33;;
68108;SDS011;54893;49.864;19.084;2024-01-16T20:18:16;70.60;;;21.63;;
68108;SDS011;54893;49.864;19.084;2024-01-16T20:23:16;69.50;;;21.70;;
68108;SDS011;54893;49.864;19.084;2024-01-16T20:28:17;65.73;;;21.17;;
68108;SDS011;54893;49.864;19.084;2024-01-16T20:33:17;71.77;;;21.50;;
68108;SDS011;54893;49.864;19.084;2024-01-16T20:38:18;72.37;;;21.47;;
68108;SDS011;54893;49.864;19.084;2024-01-16T20:43:18;76.17;;;21.63;;
68108;SDS011;54893;49.864;19.084;2024-01-16T20:48:18;63.03;;;18.00;;
68108;SDS011;54893;49.864;19.084;2024-01-16T20:53:19;50.80;;;15.40;;
68108;SDS011;54893;49.864;19.084;2024-01-16T20:58:20;46.33;;;12.37;;
68108;SDS011;54893;49.864;19.084;2024-01-16T21:03:21;37.15;;;11.27;;
68108;SDS011;54893;49.864;19.084;2024-01-16T21:08:24;25.90;;;8.98;;
68108;SDS011;54893;49.864;19.084;2024-01-16T21:13:24;29.33;;;8.53;;
68108;SDS011;54893;49.864;19.084;2024-01-16T21:18:26;25.40;;;7.77;;
68108;SDS011;54893;49.864;19.084;2024-01-16T21:23:30;25.83;;;7.68;;
68108;SDS011;54893;49.864;19.084;2024-01-16T21:28:31;30.13;;;8.73;;
68108;SDS011;54893;49.864;19.084;2024-01-16T21:33:31;23.13;;;7.67;;
68108;SDS011;54893;49.864;19.084;2024-01-16T21:38:32;19.60;;;7.37;;
68108;SDS011;54893;49.864;19.084;2024-01-16T21:43:32;23.03;;;7.97;;
68108;SDS011;54893;49.864;19.084;2024-01-16T21:48:34;24.60;;;8.48;;
68108;SDS011;54893;49.864;19.084;2024-01-16T21:53:34;28.33;;;9.35;;
68108;SDS011;54893;49.864;19.084;2024-01-16T21:58:36;26.55;;;8.88;;
68108;SDS011;54893;49.864;19.084;2024-01-16T22:03:36;32.43;;;9.97;;
68108;SDS011;54893;49.864;19.084;2024-01-16T22:08:37;24.70;;;9.17;;
68108;SDS011;54893;49.864;19.084;2024-01-16T22:13:39;37.40;;;12.23;;
68108;SDS011;54893;49.864;19.084;2024-01-16T22:18:40;29.23;;;9.40;;
68108;SDS011;54893;49.864;19.084;2024-01-16T22:23:41;23.47;;;8.47;;
68108;SDS011;54893;49.864;19.084;2024-01-16T22:28:41;19.77;;;7.10;;
68108;SDS011;54893;49.864;19.084;2024-01-16T22:33:44;31.55;;;9.75;;
68108;SDS011;54893;49.864;19.084;2024-01-16T22:38:44;22.63;;;6.70;;
68108;SDS011;54893;49.864;19.084;2024-01-16T22:43:46;17.43;;;5.40;;
68108;SDS011;54893;49.864;19.084;2024-01-16T22:48:47;20.50;;;5.47;;
68108;SDS011;54893;49.864;19.084;2024-01-16T22:53:50;16.30;;;5.20;;
68108;SDS011;54893;49.864;19.084;2024-01-16T22:58:57;14.82;;;5.13;;
68108;SDS011;54893;49.864;19.084;2024-01-16T23:03:59;16.50;;;4.57;;
68108;SDS011;54893;49.864;19.084;2024-01-16T23:09:01;16.70;;;4.97;;
68108;SDS011;54893;49.864;19.084;2024-01-16T23:14:01;19.30;;;6.60;;
68108;SDS011;54893;49.864;19.084;2024-01-16T23:19:02;11.43;;;3.03;;
68108;SDS011;54893;49.864;19.084;2024-01-16T23:24:02;20.57;;;6.37;;
68108;SDS011;54893;49.864;19.084;2024-01-16T23:29:03;17.10;;;5.80;;
68108;SDS011;54893;49.864;19.084;2024-01-16T23:34:04;18.90;;;6.10;;
68108;SDS011;54893;49.864;19.084;2024-01-16T23:39:04;14.13;;;4.60;;
68108;SDS011;54893;49.864;19.084;2024-01-16T23:44:05;11.83;;;3.77;;
68108;SDS011;54893;49.864;19.084;2024-01-16T23:49:08;11.25;;;3.45;;
68108;SDS011;54893;49.864;19.084;2024-01-16T23:54:08;15.27;;;4.47;;
68108;SDS011;54893;49.864;19.084;2024-01-16T23:59:09;14.00;;;3.90;;
